sensor_id;sensor_type;location;lat;lon;timestamp;pressure;altitude;pressure_sealevel;temperature;humidity
8756;BME280;4414;42.670;23.228;2022-08-21T00:01:31;44864.34;;;-137.01;100.00
8756;BME280;4414;42.670;23.228;2022-08-21T00:04:04;44850.94;;;-137.01;100.00
8756;BME280;4414;42.670;23.228;2022-08-21T00:06:31;44883.47;;;-137.01;100.00
8756;BME280;4414;42.670;23.228;2022-08-21T00:09:00;44866.25;;;-137.01;100.00
8756;BME280;4414;42.670;23.228;2022-08-21T00:11:27;44875.81;;;-137.01;100.00
8756;BME280;4414;42.670;23.228;2022-08-21T00:13:54;44872.00;;;-137.01;100.00
8756;BME280;4414;42.670;23.228;2022-08-21T00:16:21;44879.63;;;-137.01;100.00
8756;BME280;4414;42.670;23.228;2022-08-21T00:18:48;44862.44;;;-137.01;100.00
8756;BME280;4414;42.670;23.228;2022-08-21T00:21:16;44893.03;;;-137.01;100.00
8756;BME280;4414;42.670;23.228;2022-08-21T00:23:43;44868.16;;;-137.01;100.00
8756;BME280;4414;42.670;23.228;2022-08-21T00:26:11;44900.69;;;-137.01;100.00
8756;BME280;4414;42.670;23.228;2022-08-21T00:28:38;44873.91;;;-137.01;100.00
8756;BME280;4414;42.670;23.228;2022-08-21T00:31:05;44883.47;;;-137.01;100.00
8756;BME280;4414;42.670;23.228;2022-08-21T00:33:31;44872.00;;;-137.01;100.00
8756;BME280;4414;42.670;23.228;2022-08-21T00:35:59;44870.06;;;-137.01;100.00
8756;BME280;4414;42.670;23.228;2022-08-21T00:38:26;44870.06;;;-137.01;100.00
8756;BME280;4414;42.670;23.228;2022-08-21T00:40:54;44872.00;;;-137.01;100.00
8756;BME280;4414;42.670;23.228;2022-08-21T00:43:26;44866.25;;;-137.01;100.00
8756;BME280;4414;42.670;23.228;2022-08-21T00:45:55;44883.47;;;-137.01;100.00
8756;BME280;4414;42.670;23.228;2022-08-21T00:48:22;44870.06;;;-137.01;100.00
8756;BME280;4414;42.670;23.228;2022-08-21T00:50:53;44891.13;;;-137.01;100.00
8756;BME280;4414;42.670;23.228;2022-08-21T00:53:22;44862.44;;;-137.01;100.00
8756;BME280;4414;42.670;23.228;2022-08-21T00:55:50;44898.75;;;-137.01;100.00
8756;BME280;4414;42.670;23.228;2022-08-21T00:58:18;44877.72;;;-137.01;100.00
8756;BME280;4414;42.670;23.228;2022-08-21T01:00:48;44872.00;;;-137.01;100.00
8756;BME280;4414;42.670;23.228;2022-08-21T01:03:18;44900.69;;;-137.01;100.00
8756;BME280;4414;42.670;23.228;2022-08-21T01:05:45;44873.91;;;-137.01;100.00
8756;BME280;4414;42.670;23.228;2022-08-21T01:08:13;44885.38;;;-137.01;100.00
8756;BME280;4414;42.670;23.228;2022-08-21T01:10:42;44885.38;;;-137.01;100.00
8756;BME280;4414;42.670;23.228;2022-08-21T01:13:11;44858.59;;;-137.01;100.00
8756;BME280;4414;42.670;23.228;2022-08-21T01:15:43;44879.63;;;-137.01;100.00
8756;BME280;4414;42.670;23.228;2022-08-21T01:18:14;44872.00;;;-137.01;100.00
8756;BME280;4414;42.670;23.228;2022-08-21T01:20:44;44833.72;;;-137.01;100.00
8756;BME280;4414;42.670;23.228;2022-08-21T01:23:12;44868.16;;;-137.01;100.00
8756;BME280;4414;42.670;23.228;2022-08-21T01:25:39;44877.72;;;-137.01;100.00
8756;BME280;4414;42.670;23.228;2022-08-21T01:28:11;44875.81;;;-137.01;100.00
8756;BME280;4414;42.670;23.228;2022-08-21T01:30:40;44883.47;;;-137.01;100.00
8756;BME280;4414;42.670;23.228;2022-08-21T01:33:08;44887.28;;;-137.01;100.00
8756;BME280;4414;42.670;23.228;2022-08-21T01:35:35;44875.81;;;-137.01;100.00
8756;BME280;4414;42.670;23.228;2022-08-21T01:38:02;44875.81;;;-137.01;100.00
8756;BME280;4414;42.670;23.228;2022-08-21T01:40:30;44873.91;;;-137.01;100.00
8756;BME280;4414;42.670;23.228;2022-08-21T01:42:57;44883.47;;;-137.01;100.00
8756;BME280;4414;42.670;23.228;2022-08-21T01:45:24;44889.19;;;-137.01;100.00
8756;BME280;4414;42.670;23.228;2022-08-21T01:47:51;44868.16;;;-137.01;100.00
8756;BME280;4414;42.670;23.228;2022-08-21T01:50:20;44883.47;;;-137.01;100.00
8756;BME280;4414;42.670;23.228;2022-08-21T01:52:47;44921.72;;;-137.01;100.00
8756;BME280;4414;42.670;23.228;2022-08-21T01:55:15;44883.47;;;-137.01;100.00
8756;BME280;4414;42.670;23.228;2022-08-21T01:57:45;44864.34;;;-137.01;100.00
8756;BME280;4414;42.670;23.228;2022-08-21T02:00:15;44872.00;;;-137.01;100.00
8756;BME280;4414;42.670;23.228;2022-08-21T02:02:42;44891.13;;;-137.01;100.00
8756;BME280;4414;42.670;23.228;2022-08-21T02:05:10;44881.56;;;-137.01;100.00
8756;BME280;4414;42.670;23.228;2022-08-21T02:07:38;44883.47;;;-137.01;100.00
8756;BME280;4414;42.670;23.228;2022-08-21T02:10:07;44891.13;;;-137.01;100.00
8756;BME280;4414;42.670;23.228;2022-08-21T02:12:35;44891.13;;;-137.01;100.00
8756;BME280;4414;42.670;23.228;2022-08-21T02:15:04;44883.47;;;-137.01;100.00
8756;BME280;4414;42.670;23.228;2022-08-21T02:17:38;44885.38;;;-137.01;100.00
8756;BME280;4414;42.670;23.228;2022-08-21T02:20:05;44891.13;;;-137.01;100.00
8756;BME280;4414;42.670;23.228;2022-08-21T02:22:32;44868.16;;;-137.01;100.00
8756;BME280;4414;42.670;23.228;2022-08-21T02:24:59;44893.03;;;-137.01;100.00
8756;BME280;4414;42.670;23.228;2022-08-21T02:27:26;44873.91;;;-137.01;100.00
8756;BME280;4414;42.670;23.228;2022-08-21T02:29:54;44881.56;;;-137.01;100.00
8756;BME280;4414;42.670;23.228;2022-08-21T02:32:23;44893.03;;;-137.01;100.00
8756;BME280;4414;42.670;23.228;2022-08-21T02:34:50;44891.13;;;-137.01;100.00
8756;BME280;4414;42.670;23.228;2022-08-21T02:37:17;44898.75;;;-137.01;100.00
8756;BME280;4414;42.670;23.228;2022-08-21T02:39:44;44893.03;;;-137.01;100.00
8756;BME280;4414;42.670;23.228;2022-08-21T02:42:11;44893.03;;;-137.01;100.00
8756;BME280;4414;42.670;23.228;2022-08-21T02:44:37;44898.75;;;-137.01;100.00
8756;BME280;4414;42.670;23.228;2022-08-21T02:47:04;44896.84;;;-137.01;100.00
8756;BME280;4414;42.670;23.228;2022-08-21T02:49:32;44889.19;;;-137.01;100.00
8756;BME280;4414;42.670;23.228;2022-08-21T02:51:59;44875.81;;;-137.01;100.00
8756;BME280;4414;42.670;23.228;2022-08-21T02:54:26;44885.38;;;-137.01;100.00
8756;BME280;4414;42.670;23.228;2022-08-21T02:56:52;44887.28;;;-137.01;100.00
8756;BME280;4414;42.670;23.228;2022-08-21T02:59:19;44891.13;;;-137.01;100.00
8756;BME280;4414;42.670;23.228;2022-08-21T03:01:46;44893.03;;;-137.01;100.00
8756;BME280;4414;42.670;23.228;2022-08-21T03:04:12;44894.94;;;-137.01;100.00
8756;BME280;4414;42.670;23.228;2022-08-21T03:06:41;44887.28;;;-137.01;100.00
8756;BME280;4414;42.670;23.228;2022-08-21T03:09:08;44875.81;;;-137.01;100.00
8756;BME280;4414;42.670;23.228;2022-08-21T03:11:34;44889.19;;;-137.01;100.00
8756;BME280;4414;42.670;23.228;2022-08-21T03:14:01;44856.69;;;-137.01;100.00
8756;BME280;4414;42.670;23.228;2022-08-21T03:16:30;44915.97;;;-137.01;100.00
8756;BME280;4414;42.670;23.228;2022-08-21T03:18:57;44896.84;;;-137.01;100.00
8756;BME280;4414;42.670;23.228;2022-08-21T03:21:25;44896.84;;;-137.01;100.00
8756;BME280;4414;42.670;23.228;2022-08-21T03:23:53;44887.28;;;-137.01;100.00
8756;BME280;4414;42.670;23.228;2022-08-21T03:26:19;44902.59;;;-137.01;100.00
8756;BME280;4414;42.670;23.228;2022-08-21T03:28:46;44885.38;;;-137.01;100.00
8756;BME280;4414;42.670;23.228;2022-08-21T03:31:14;44885.38;;;-137.01;100.00
8756;BME280;4414;42.670;23.228;2022-08-21T03:33:40;44906.41;;;-137.01;100.00
8756;BME280;4414;42.670;23.228;2022-08-21T03:36:08;44883.47;;;-137.01;100.00
8756;BME280;4414;42.670;23.228;2022-08-21T03:38:37;44887.28;;;-137.01;100.00
8756;BME280;4414;42.670;23.228;2022-08-21T03:41:05;44887.28;;;-137.01;100.00
8756;BME280;4414;42.670;23.228;2022-08-21T03:43:32;44875.81;;;-137.01;100.00
8756;BME280;4414;42.670;23.228;2022-08-21T03:46:01;44887.28;;;-137.01;100.00
8756;BME280;4414;42.670;23.228;2022-08-21T03:48:29;44893.03;;;-137.01;100.00
8756;BME280;4414;42.670;23.228;2022-08-21T03:50:56;44875.81;;;-137.01;100.00
8756;BME280;4414;42.670;23.228;2022-08-21T03:53:22;44866.25;;;-137.01;100.00
8756;BME280;4414;42.670;23.228;2022-08-21T03:55:50;44872.00;;;-137.01;100.00
8756;BME280;4414;42.670;23.228;2022-08-21T03:58:21;44885.38;;;-137.01;100.00
8756;BME280;4414;42.670;23.228;2022-08-21T04:00:50;44896.84;;;-137.01;100.00
8756;BME280;4414;42.670;23.228;2022-08-21T04:03:18;44902.59;;;-137.01;100.00
8756;BME280;4414;42.670;23.228;2022-08-21T04:05:45;44902.59;;;-137.01;100.00
8756;BME280;4414;42.670;23.228;2022-08-21T04:08:13;44898.75;;;-137.01;100.00
8756;BME280;4414;42.670;23.228;2022-08-21T04:10:43;44919.81;;;-137.01;100.00
8756;BME280;4414;42.670;23.228;2022-08-21T04:13:11;44891.13;;;-137.01;100.00
8756;BME280;4414;42.670;23.228;2022-08-21T04:15:39;44898.75;;;-137.01;100.00
8756;BME280;4414;42.670;23.228;2022-08-21T04:18:06;44894.94;;;-137.01;100.00
8756;BME280;4414;42.670;23.228;2022-08-21T04:20:33;44893.03;;;-137.01;100.00
8756;BME280;4414;42.670;23.228;2022-08-21T04:23:00;44875.81;;;-137.01;100.00
8756;BME280;4414;42.670;23.228;2022-08-21T04:25:27;44894.94;;;-137.01;100.00
8756;BME280;4414;42.670;23.228;2022-08-21T04:27:54;44866.25;;;-137.01;100.00
8756;BME280;4414;42.670;23.228;2022-08-21T04:30:21;44873.91;;;-137.01;100.00
8756;BME280;4414;42.670;23.228;2022-08-21T04:32:50;44883.47;;;-137.01;100.00
8756;BME280;4414;42.670;23.228;2022-08-21T04:35:19;44891.13;;;-137.01;100.00
8756;BME280;4414;42.670;23.228;2022-08-21T04:37:47;44887.28;;;-137.01;100.00
8756;BME280;4414;42.670;23.228;2022-08-21T04:40:17;44877.72;;;-137.01;100.00
8756;BME280;4414;42.670;23.228;2022-08-21T04:42:46;44873.91;;;-137.01;100.00
8756;BME280;4414;42.670;23.228;2022-08-21T04:45:17;44898.75;;;-137.01;100.00
8756;BME280;4414;42.670;23.228;2022-08-21T04:47:45;44883.47;;;-137.01;100.00
8756;BME280;4414;42.670;23.228;2022-08-21T04:50:13;44896.84;;;-137.01;100.00
8756;BME280;4414;42.670;23.228;2022-08-21T04:52:40;44875.81;;;-137.01;100.00
8756;BME280;4414;42.670;23.228;2022-08-21T04:55:07;44891.13;;;-137.01;100.00
8756;BME280;4414;42.670;23.228;2022-08-21T04:57:34;44894.94;;;-137.01;100.00
8756;BME280;4414;42.670;23.228;2022-08-21T05:00:03;44891.13;;;-137.01;100.00
8756;BME280;4414;42.670;23.228;2022-08-21T05:02:31;44914.06;;;-137.01;100.00
8756;BME280;4414;42.670;23.228;2022-08-21T05:04:59;44894.94;;;-137.01;100.00
8756;BME280;4414;42.670;23.228;2022-08-21T05:07:28;44902.59;;;-137.01;100.00
8756;BME280;4414;42.670;23.228;2022-08-21T05:09:56;44904.50;;;-137.01;100.00
8756;BME280;4414;42.670;23.228;2022-08-21T05:12:23;44875.81;;;-137.01;100.00
8756;BME280;4414;42.670;23.228;2022-08-21T05:14:50;44896.84;;;-137.01;100.00
8756;BME280;4414;42.670;23.228;2022-08-21T05:17:17;44910.25;;;-137.01;100.00
8756;BME280;4414;42.670;23.228;2022-08-21T05:19:44;44893.03;;;-137.01;100.00
8756;BME280;4414;42.670;23.228;2022-08-21T05:22:10;44900.69;;;-137.01;100.00
8756;BME280;4414;42.670;23.228;2022-08-21T05:24:39;44906.41;;;-137.01;100.00
8756;BME280;4414;42.670;23.228;2022-08-21T05:27:05;44891.13;;;-137.01;100.00
8756;BME280;4414;42.670;23.228;2022-08-21T05:29:32;44910.25;;;-137.01;100.00
8756;BME280;4414;42.670;23.228;2022-08-21T05:31:59;44914.06;;;-137.01;100.00
8756;BME280;4414;42.670;23.228;2022-08-21T05:34:26;44906.41;;;-137.01;100.00
8756;BME280;4414;42.670;23.228;2022-08-21T05:36:53;44885.38;;;-137.01;100.00
8756;BME280;4414;42.670;23.228;2022-08-21T05:39:19;44870.06;;;-137.01;100.00
8756;BME280;4414;42.670;23.228;2022-08-21T05:41:48;44902.59;;;-137.01;100.00
8756;BME280;4414;42.670;23.228;2022-08-21T05:44:14;44914.06;;;-137.01;100.00
8756;BME280;4414;42.670;23.228;2022-08-21T05:46:41;44896.84;;;-137.01;100.00
8756;BME280;4414;42.670;23.228;2022-08-21T05:49:08;44906.41;;;-137.01;100.00
8756;BME280;4414;42.670;23.228;2022-08-21T05:51:34;44898.75;;;-137.01;100.00
8756;BME280;4414;42.670;23.228;2022-08-21T05:54:02;44904.50;;;-137.01;100.00
8756;BME280;4414;42.670;23.228;2022-08-21T05:56:29;44921.72;;;-137.01;100.00
8756;BME280;4414;42.670;23.228;2022-08-21T05:58:57;44906.41;;;-137.01;100.00
8756;BME280;4414;42.670;23.228;2022-08-21T06:01:24;44915.97;;;-137.01;100.00
8756;BME280;4414;42.670;23.228;2022-08-21T06:03:51;44896.84;;;-137.01;100.00
8756;BME280;4414;42.670;23.228;2022-08-21T06:06:17;44891.13;;;-137.01;100.00
8756;BME280;4414;42.670;23.228;2022-08-21T06:08:44;44902.59;;;-137.01;100.00
8756;BME280;4414;42.670;23.228;2022-08-21T06:11:11;44885.38;;;-137.01;100.00
8756;BME280;4414;42.670;23.228;2022-08-21T06:13:37;44889.19;;;-137.01;100.00
8756;BME280;4414;42.670;23.228;2022-08-21T06:16:09;44900.69;;;-137.01;100.00
8756;BME280;4414;42.670;23.228;2022-08-21T06:18:37;44900.69;;;-137.01;100.00
8756;BME280;4414;42.670;23.228;2022-08-21T06:21:04;44891.13;;;-137.01;100.00
8756;BME280;4414;42.670;23.228;2022-08-21T06:23:31;44937.03;;;-137.01;100.00
8756;BME280;4414;42.670;23.228;2022-08-21T06:25:59;44879.63;;;-137.01;100.00
8756;BME280;4414;42.670;23.228;2022-08-21T06:28:26;44887.28;;;-137.01;100.00
8756;BME280;4414;42.670;23.228;2022-08-21T06:30:53;44904.50;;;-137.01;100.00
8756;BME280;4414;42.670;23.228;2022-08-21T06:33:21;44923.63;;;-137.01;100.00
8756;BME280;4414;42.670;23.228;2022-08-21T06:35:49;44921.72;;;-137.01;100.00
8756;BME280;4414;42.670;23.228;2022-08-21T06:38:16;44891.13;;;-137.01;100.00
8756;BME280;4414;42.670;23.228;2022-08-21T06:40:43;44917.91;;;-137.01;100.00
8756;BME280;4414;42.670;23.228;2022-08-21T06:43:11;44929.38;;;-137.01;100.00
8756;BME280;4414;42.670;23.228;2022-08-21T06:45:39;44910.25;;;-137.01;100.00
8756;BME280;4414;42.670;23.228;2022-08-21T06:48:06;44919.81;;;-137.01;100.00
8756;BME280;4414;42.670;23.228;2022-08-21T06:50:34;44914.06;;;-137.01;100.00
8756;BME280;4414;42.670;23.228;2022-08-21T06:53:03;44912.16;;;-137.01;100.00
8756;BME280;4414;42.670;23.228;2022-08-21T06:55:31;44910.25;;;-137.01;100.00
8756;BME280;4414;42.670;23.228;2022-08-21T06:57:58;44925.53;;;-137.01;100.00
8756;BME280;4414;42.670;23.228;2022-08-21T07:00:25;44891.13;;;-137.01;100.00
8756;BME280;4414;42.670;23.228;2022-08-21T07:02:52;44914.06;;;-137.01;100.00
8756;BME280;4414;42.670;23.228;2022-08-21T07:05:19;44910.25;;;-137.01;100.00
8756;BME280;4414;42.670;23.228;2022-08-21T07:07:47;44915.97;;;-137.01;100.00
8756;BME280;4414;42.670;23.228;2022-08-21T07:10:14;44908.34;;;-137.01;100.00
8756;BME280;4414;42.670;23.228;2022-08-21T07:12:41;44925.53;;;-137.01;100.00
8756;BME280;4414;42.670;23.228;2022-08-21T07:15:09;44933.19;;;-137.01;100.00
8756;BME280;4414;42.670;23.228;2022-08-21T07:17:36;44923.63;;;-137.01;100.00
8756;BME280;4414;42.670;23.228;2022-08-21T07:20:04;44917.91;;;-137.01;100.00
8756;BME280;4414;42.670;23.228;2022-08-21T07:22:31;44940.84;;;-137.01;100.00
8756;BME280;4414;42.670;23.228;2022-08-21T07:24:59;44952.31;;;-137.01;100.00
8756;BME280;4414;42.670;23.228;2022-08-21T07:27:26;44940.84;;;-137.01;100.00
8756;BME280;4414;42.670;23.228;2022-08-21T07:29:52;44914.06;;;-137.01;100.00
8756;BME280;4414;42.670;23.228;2022-08-21T07:32:19;44935.09;;;-137.01;100.00
8756;BME280;4414;42.670;23.228;2022-08-21T07:34:46;44921.72;;;-137.01;100.00
8756;BME280;4414;42.670;23.228;2022-08-21T07:37:13;44898.75;;;-137.01;100.00
8756;BME280;4414;42.670;23.228;2022-08-21T07:39:39;44921.72;;;-137.01;100.00
8756;BME280;4414;42.670;23.228;2022-08-21T07:42:07;44935.09;;;-137.01;100.00
8756;BME280;4414;42.670;23.228;2022-08-21T07:44:35;44925.53;;;-137.01;100.00
8756;BME280;4414;42.670;23.228;2022-08-21T07:47:02;44967.63;;;-137.01;100.00
8756;BME280;4414;42.670;23.228;2022-08-21T07:49:29;44937.03;;;-137.01;100.00
8756;BME280;4414;42.670;23.228;2022-08-21T07:51:55;44935.09;;;-137.01;100.00
8756;BME280;4414;42.670;23.228;2022-08-21T07:54:22;44938.94;;;-137.01;100.00
8756;BME280;4414;42.670;23.228;2022-08-21T07:56:49;44938.94;;;-137.01;100.00
8756;BME280;4414;42.670;23.228;2022-08-21T07:59:17;44931.28;;;-137.01;99.72
8756;BME280;4414;42.670;23.228;2022-08-21T08:01:44;44935.09;;;-137.01;100.00
8756;BME280;4414;42.670;23.228;2022-08-21T08:04:10;44944.66;;;-137.01;100.00
8756;BME280;4414;42.670;23.228;2022-08-21T08:06:37;44935.09;;;-137.01;100.00
8756;BME280;4414;42.670;23.228;2022-08-21T08:09:04;44933.19;;;-137.01;100.00
8756;BME280;4414;42.670;23.228;2022-08-21T08:11:31;44925.53;;;-137.01;100.00
8756;BME280;4414;42.670;23.228;2022-08-21T08:13:58;44937.03;;;-137.01;100.00
8756;BME280;4414;42.670;23.228;2022-08-21T08:16:26;44948.50;;;-137.01;100.00
8756;BME280;4414;42.670;23.228;2022-08-21T08:18:53;44933.19;;;-137.01;98.63
8756;BME280;4414;42.670;23.228;2022-08-21T08:21:21;44944.66;;;-137.01;100.00
8756;BME280;4414;42.670;23.228;2022-08-21T08:23:48;44965.72;;;-137.01;96.74
8756;BME280;4414;42.670;23.228;2022-08-21T08:26:14;44940.84;;;-137.01;97.27
8756;BME280;4414;42.670;23.228;2022-08-21T08:28:42;44937.03;;;-137.01;97.85
8756;BME280;4414;42.670;23.228;2022-08-21T08:31:09;44963.81;;;-137.01;97.70
8756;BME280;4414;42.670;23.228;2022-08-21T08:33:37;44946.59;;;-137.01;97.69
8756;BME280;4414;42.670;23.228;2022-08-21T08:36:05;44921.72;;;-137.01;99.35
8756;BME280;4414;42.670;23.228;2022-08-21T08:38:31;44954.25;;;-137.01;96.57
8756;BME280;4414;42.670;23.228;2022-08-21T08:41:02;44956.16;;;-137.01;95.88
8756;BME280;4414;42.670;23.228;2022-08-21T08:43:32;44959.97;;;-137.01;95.33
8756;BME280;4414;42.670;23.228;2022-08-21T08:46:03;44938.94;;;-137.01;95.76
8756;BME280;4414;42.670;23.228;2022-08-21T08:48:39;44938.94;;;-137.01;96.77
8756;BME280;4414;42.670;23.228;2022-08-21T08:51:13;44952.31;;;-137.01;93.12
8756;BME280;4414;42.670;23.228;2022-08-21T08:53:49;44959.97;;;-137.01;93.72
8756;BME280;4414;42.670;23.228;2022-08-21T08:56:25;44948.50;;;-137.01;92.06
8756;BME280;4414;42.670;23.228;2022-08-21T08:58:54;44948.50;;;-137.01;86.38
8756;BME280;4414;42.670;23.228;2022-08-21T09:01:22;44961.88;;;-137.01;84.85
8756;BME280;4414;42.670;23.228;2022-08-21T09:03:50;44967.63;;;-137.01;87.94
8756;BME280;4414;42.670;23.228;2022-08-21T09:06:37;44959.97;;;-137.01;88.59
8756;BME280;4414;42.670;23.228;2022-08-21T09:09:16;44963.81;;;-137.01;86.08
8756;BME280;4414;42.670;23.228;2022-08-21T09:12:00;44984.84;;;-137.01;84.92
8756;BME280;4414;42.670;23.228;2022-08-21T09:14:39;44965.72;;;-137.01;86.52
8756;BME280;4414;42.670;23.228;2022-08-21T09:17:19;45000.13;;;-137.01;81.31
8756;BME280;4414;42.670;23.228;2022-08-21T09:20:01;44990.56;;;-137.01;81.87
8756;BME280;4414;42.670;23.228;2022-08-21T09:22:38;44986.75;;;-137.01;78.64
8756;BME280;4414;42.670;23.228;2022-08-21T09:25:12;45005.88;;;-137.01;78.47
8756;BME280;4414;42.670;23.228;2022-08-21T09:27:42;44994.41;;;-137.01;79.43
8756;BME280;4414;42.670;23.228;2022-08-21T09:30:10;44975.28;;;-137.01;81.99
8756;BME280;4414;42.670;23.228;2022-08-21T09:32:38;44990.56;;;-137.01;78.94
8756;BME280;4414;42.670;23.228;2022-08-21T09:35:09;44979.09;;;-137.01;82.14
8756;BME280;4414;42.670;23.228;2022-08-21T09:37:47;44986.75;;;-137.01;81.37
8756;BME280;4414;42.670;23.228;2022-08-21T09:40:21;45002.06;;;-137.01;81.20
8756;BME280;4414;42.670;23.228;2022-08-21T09:42:54;44990.56;;;-137.01;78.55
8756;BME280;4414;42.670;23.228;2022-08-21T09:45:22;44986.75;;;-137.01;81.46
8756;BME280;4414;42.670;23.228;2022-08-21T09:47:49;45003.97;;;-137.01;82.99
8756;BME280;4414;42.670;23.228;2022-08-21T09:50:21;44986.75;;;-137.01;82.02
8756;BME280;4414;42.670;23.228;2022-08-21T09:52:51;44981.00;;;-137.01;81.57
8756;BME280;4414;42.670;23.228;2022-08-21T09:55:30;45002.06;;;-137.01;83.23
8756;BME280;4414;42.670;23.228;2022-08-21T09:58:15;44990.56;;;-137.01;77.03
8756;BME280;4414;42.670;23.228;2022-08-21T10:00:43;44965.72;;;-137.01;78.56
8756;BME280;4414;42.670;23.228;2022-08-21T10:03:16;44986.75;;;-137.01;81.03
8756;BME280;4414;42.670;23.228;2022-08-21T10:05:55;44984.84;;;-137.01;80.33
8756;BME280;4414;42.670;23.228;2022-08-21T10:08:24;44994.41;;;-137.01;77.95
8756;BME280;4414;42.670;23.228;2022-08-21T10:10:55;44996.31;;;-137.01;76.86
8756;BME280;4414;42.670;23.228;2022-08-21T10:13:29;45047.97;;;-137.01;75.03
8756;BME280;4414;42.670;23.228;2022-08-21T10:16:15;45011.63;;;-137.01;74.97
8756;BME280;4414;42.670;23.228;2022-08-21T10:18:54;45015.44;;;-137.01;72.37
8756;BME280;4414;42.670;23.228;2022-08-21T10:21:30;45009.72;;;-137.01;74.71
8756;BME280;4414;42.670;23.228;2022-08-21T10:24:07;45000.13;;;-137.01;74.79
8756;BME280;4414;42.670;23.228;2022-08-21T10:26:45;44994.41;;;-137.01;77.55
8756;BME280;4414;42.670;23.228;2022-08-21T10:29:31;45011.63;;;-137.01;76.34
8756;BME280;4414;42.670;23.228;2022-08-21T10:32:08;44994.41;;;-137.01;77.92
8756;BME280;4414;42.670;23.228;2022-08-21T10:34:45;44979.09;;;-137.01;76.30
8756;BME280;4414;42.670;23.228;2022-08-21T10:37:26;45007.78;;;-137.01;77.22
8756;BME280;4414;42.670;23.228;2022-08-21T10:40:07;44979.09;;;-137.01;72.95
8756;BME280;4414;42.670;23.228;2022-08-21T10:42:41;45002.06;;;-137.01;74.50
8756;BME280;4414;42.670;23.228;2022-08-21T10:45:27;45011.63;;;-137.01;77.75
8756;BME280;4414;42.670;23.228;2022-08-21T10:48:02;45002.06;;;-137.01;72.36
8756;BME280;4414;42.670;23.228;2022-08-21T10:50:33;44971.44;;;-137.01;72.30
8756;BME280;4414;42.670;23.228;2022-08-21T10:53:19;45009.72;;;-137.01;76.42
8756;BME280;4414;42.670;23.228;2022-08-21T10:55:52;45000.13;;;-137.01;73.21
8756;BME280;4414;42.670;23.228;2022-08-21T10:58:26;45005.88;;;-137.01;74.35
8756;BME280;4414;42.670;23.228;2022-08-21T11:00:58;44986.75;;;-137.01;73.92
8756;BME280;4414;42.670;23.228;2022-08-21T11:03:33;45034.56;;;-137.01;76.16
8756;BME280;4414;42.670;23.228;2022-08-21T11:06:04;44961.88;;;-137.01;72.02
8756;BME280;4414;42.670;23.228;2022-08-21T11:08:39;44988.66;;;-137.01;76.58
8756;BME280;4414;42.670;23.228;2022-08-21T11:11:10;45013.53;;;-137.01;72.67
8756;BME280;4414;42.670;23.228;2022-08-21T11:13:42;45015.44;;;-137.01;75.60
8756;BME280;4414;42.670;23.228;2022-08-21T11:16:22;45025.00;;;-137.01;74.85
8756;BME280;4414;42.670;23.228;2022-08-21T11:18:57;44984.84;;;-137.01;77.67
8756;BME280;4414;42.670;23.228;2022-08-21T11:21:32;44982.94;;;-137.01;74.39
8756;BME280;4414;42.670;23.228;2022-08-21T11:24:14;44990.56;;;-137.01;76.80
8756;BME280;4414;42.670;23.228;2022-08-21T11:26:46;44994.41;;;-137.01;73.16
8756;BME280;4414;42.670;23.228;2022-08-21T11:29:19;44996.31;;;-137.01;74.87
8756;BME280;4414;42.670;23.228;2022-08-21T11:32:05;45002.06;;;-137.01;75.47
8756;BME280;4414;42.670;23.228;2022-08-21T11:34:43;45000.13;;;-137.01;76.82
8756;BME280;4414;42.670;23.228;2022-08-21T11:37:20;44992.50;;;-137.01;76.63
8756;BME280;4414;42.670;23.228;2022-08-21T11:39:57;44981.00;;;-137.01;74.92
8756;BME280;4414;42.670;23.228;2022-08-21T11:42:32;45011.63;;;-137.01;73.85
8756;BME280;4414;42.670;23.228;2022-08-21T11:45:14;45011.63;;;-137.01;77.46
8756;BME280;4414;42.670;23.228;2022-08-21T11:47:54;44998.22;;;-137.01;77.06
8756;BME280;4414;42.670;23.228;2022-08-21T11:50:26;44990.56;;;-137.01;73.43
8756;BME280;4414;42.670;23.228;2022-08-21T11:52:56;44982.94;;;-137.01;76.69
8756;BME280;4414;42.670;23.228;2022-08-21T11:55:31;45009.72;;;-137.01;76.54
8756;BME280;4414;42.670;23.228;2022-08-21T11:58:06;45011.63;;;-137.01;75.26
8756;BME280;4414;42.670;23.228;2022-08-21T12:00:36;45005.88;;;-137.01;71.83
8756;BME280;4414;42.670;23.228;2022-08-21T12:03:09;45013.53;;;-137.01;73.72
8756;BME280;4414;42.670;23.228;2022-08-21T12:05:40;45005.88;;;-137.01;72.19
8756;BME280;4414;42.670;23.228;2022-08-21T12:08:12;45017.34;;;-137.01;71.10
8756;BME280;4414;42.670;23.228;2022-08-21T12:10:45;44994.41;;;-137.01;71.42
8756;BME280;4414;42.670;23.228;2022-08-21T12:13:24;45025.00;;;-137.01;70.25
8756;BME280;4414;42.670;23.228;2022-08-21T12:15:52;45019.28;;;-137.01;68.14
8756;BME280;4414;42.670;23.228;2022-08-21T12:18:22;45013.53;;;-137.01;70.12
8756;BME280;4414;42.670;23.228;2022-08-21T12:21:05;45032.66;;;-137.01;68.08
8756;BME280;4414;42.670;23.228;2022-08-21T12:23:35;45023.09;;;-137.01;69.63
8756;BME280;4414;42.670;23.228;2022-08-21T12:26:22;45009.72;;;-137.01;67.01
8756;BME280;4414;42.670;23.228;2022-08-21T12:28:50;45005.88;;;-137.01;68.37
8756;BME280;4414;42.670;23.228;2022-08-21T12:31:19;45009.72;;;-137.01;67.98
8756;BME280;4414;42.670;23.228;2022-08-21T12:33:52;45017.34;;;-137.01;68.60
8756;BME280;4414;42.670;23.228;2022-08-21T12:36:23;45017.34;;;-137.01;69.67
8756;BME280;4414;42.670;23.228;2022-08-21T12:38:54;45028.84;;;-137.01;68.08
8756;BME280;4414;42.670;23.228;2022-08-21T12:41:26;45013.53;;;-137.01;68.85
8756;BME280;4414;42.670;23.228;2022-08-21T12:43:57;45028.84;;;-137.01;67.05
8756;BME280;4414;42.670;23.228;2022-08-21T12:46:32;44982.94;;;-137.01;68.45
8756;BME280;4414;42.670;23.228;2022-08-21T12:49:06;45000.13;;;-137.01;68.49
8756;BME280;4414;42.670;23.228;2022-08-21T12:51:48;45005.88;;;-137.01;70.35
8756;BME280;4414;42.670;23.228;2022-08-21T12:54:24;45017.34;;;-137.01;71.48
8756;BME280;4414;42.670;23.228;2022-08-21T12:57:01;44990.56;;;-137.01;68.75